createdAt,value
2019-03-04T00:00:56.768Z,61.90
2019-03-04T00:05:15.026Z,62.30
2019-03-04T00:09:33.441Z,62.40
2019-03-04T00:13:51.432Z,62.40
2019-03-04T00:18:09.587Z,63.40
2019-03-04T00:22:27.710Z,63.00
2019-03-04T00:26:45.864Z,63.20
2019-03-04T00:31:04.359Z,63.10
2019-03-04T00:35:23.437Z,63.30
2019-03-04T00:39:41.877Z,63.30
2019-03-04T00:44:00.110Z,62.90
2019-03-04T00:48:18.213Z,63.10
2019-03-04T00:52:36.408Z,63.20
2019-03-04T00:56:54.562Z,62.90
2019-03-04T01:01:12.714Z,62.80
2019-03-04T01:05:31.079Z,62.80
2019-03-04T01:09:49.323Z,62.70
2019-03-04T01:14:07.582Z,62.60
2019-03-04T01:18:25.801Z,62.10
2019-03-04T01:22:45.427Z,61.90
2019-03-04T01:27:04.001Z,61.90
2019-03-04T01:31:22.194Z,61.60
2019-03-04T01:35:40.604Z,61.30
2019-03-04T01:39:58.928Z,61.20
2019-03-04T01:44:17.665Z,61.00
2019-03-04T01:48:36.305Z,60.70
2019-03-04T01:52:54.440Z,60.40
2019-03-04T01:57:13.145Z,60.40
2019-03-04T02:01:31.397Z,59.80
2019-03-04T02:05:50.685Z,59.70
2019-03-04T02:10:12.043Z,59.40
2019-03-04T02:14:30.203Z,59.10
2019-03-04T02:18:48.861Z,59.10
2019-03-04T02:23:07.075Z,59.20
2019-03-04T02:27:25.313Z,59.40
2019-03-04T02:31:43.527Z,59.60
2019-03-04T02:36:01.864Z,59.60
2019-03-04T02:40:20.132Z,59.70
2019-03-04T02:44:38.295Z,59.70
2019-03-04T02:48:56.725Z,59.70
2019-03-04T02:53:15.251Z,59.70
2019-03-04T02:57:33.748Z,59.50
2019-03-04T03:01:51.943Z,59.20
2019-03-04T03:06:10.160Z,59.20
2019-03-04T03:10:28.439Z,59.00
2019-03-04T03:14:46.671Z,58.90
2019-03-04T03:19:04.847Z,58.90
2019-03-04T03:23:23.274Z,58.80
2019-03-04T03:27:41.695Z,59.10
2019-03-04T03:32:00.297Z,59.70
2019-03-04T03:36:18.493Z,59.30
2019-03-04T03:40:36.672Z,59.00
2019-03-04T03:44:55.309Z,59.30
2019-03-04T03:49:13.491Z,58.50
2019-03-04T03:53:31.666Z,59.10
2019-03-04T03:57:49.909Z,59.00
2019-03-04T04:02:08.031Z,58.90
2019-03-04T04:06:26.208Z,59.10
2019-03-04T04:10:44.710Z,59.20
2019-03-04T04:15:07.046Z,59.20
2019-03-04T04:19:25.367Z,59.30
2019-03-04T04:23:44.631Z,59.30
2019-03-04T04:28:05.077Z,59.40
2019-03-04T04:32:23.195Z,59.70
2019-03-04T04:36:41.960Z,59.80
2019-03-04T04:41:00.684Z,59.70
2019-03-04T04:45:19.237Z,59.60
2019-03-04T04:49:37.867Z,59.70
2019-03-04T04:53:56.268Z,59.90
2019-03-04T04:58:14.460Z,59.90
2019-03-04T05:02:32.687Z,59.80
2019-03-04T05:06:51.063Z,59.50
2019-03-04T05:11:09.217Z,59.50
2019-03-04T05:15:27.389Z,59.40
2019-03-04T05:19:45.608Z,59.00
2019-03-04T05:24:04.779Z,59.20
2019-03-04T05:28:22.957Z,58.90
2019-03-04T05:32:41.054Z,58.70
2019-03-04T05:36:59.540Z,58.70
2019-03-04T05:41:17.819Z,58.30
2019-03-04T05:45:36.026Z,58.50
2019-03-04T05:49:54.298Z,58.40
2019-03-04T05:54:12.888Z,58.30
2019-03-04T05:58:31.080Z,58.40
2019-03-04T06:02:49.619Z,58.30
2019-03-04T06:07:11.835Z,58.20
2019-03-04T06:11:30.336Z,58.30
2019-03-04T06:15:48.622Z,58.60
2019-03-04T06:20:07.490Z,58.60
2019-03-04T06:24:26.183Z,58.60
2019-03-04T06:28:44.316Z,58.30
2019-03-04T06:33:03.005Z,58.30
2019-03-04T06:37:21.583Z,58.60
2019-03-04T06:41:39.784Z,58.50
2019-03-04T06:45:57.882Z,58.70
2019-03-04T06:50:50.909Z,59.00
2019-03-04T06:56:17.340Z,59.30
2019-03-04T07:01:05.434Z,59.10
2019-03-04T07:05:55.024Z,59.00
2019-03-04T07:10:13.240Z,58.80
2019-03-04T07:14:34.877Z,59.50
2019-03-04T07:18:53.128Z,59.40
2019-03-04T07:23:13.380Z,59.00
2019-03-04T07:27:32.042Z,59.10
2019-03-04T07:31:52.808Z,59.20
2019-03-04T07:36:11.072Z,59.00
2019-03-04T07:40:33.202Z,59.10
2019-03-04T07:44:53.959Z,59.40
2019-03-04T07:49:13.995Z,59.80
2019-03-04T07:53:45.818Z,58.70
2019-03-04T07:57:55.748Z,58.00
2019-03-04T08:02:14.106Z,58.00
2019-03-04T08:06:32.790Z,57.40
2019-03-04T08:12:05.088Z,57.20
2019-03-04T08:16:23.741Z,56.40
2019-03-04T08:20:42.026Z,51.90
2019-03-04T08:25:00.332Z,51.50
2019-03-04T08:29:18.454Z,52.50
2019-03-04T08:33:36.639Z,53.00
2019-03-04T08:37:55.287Z,52.70
2019-03-04T08:42:14.955Z,53.70
2019-03-04T08:46:33.485Z,54.20
2019-03-04T08:50:51.987Z,54.30
2019-03-04T08:55:12.685Z,54.80
2019-03-04T08:59:30.811Z,55.20
2019-03-04T09:03:49.291Z,55.80
2019-03-04T09:08:07.527Z,56.10
2019-03-04T09:12:26.041Z,56.10
2019-03-04T09:16:44.631Z,56.00
2019-03-04T09:21:04.376Z,56.40
2019-03-04T09:25:44.880Z,55.90
2019-03-04T09:30:03.149Z,54.20
2019-03-04T09:34:21.868Z,52.70
2019-03-04T09:38:41.894Z,51.60
2019-03-04T09:43:00.444Z,53.20
2019-03-04T09:47:18.503Z,52.70
2019-03-04T09:51:37.776Z,53.10
2019-03-04T09:55:56.408Z,53.50
2019-03-04T10:01:06.461Z,53.70
2019-03-04T10:06:07.563Z,53.80
2019-03-04T10:11:21.007Z,54.70
2019-03-04T10:16:51.377Z,53.60
2019-03-04T10:21:42.047Z,52.90
2019-03-04T10:26:46.028Z,53.40
2019-03-04T10:32:02.915Z,52.70
2019-03-04T10:37:19.310Z,51.80
2019-03-04T10:42:22.522Z,51.20
2019-03-04T10:47:10.433Z,51.00
2019-03-04T10:51:28.665Z,51.20
2019-03-04T10:55:48.110Z,51.90
2019-03-04T11:00:15.299Z,52.00
2019-03-04T11:04:34.887Z,51.90
2019-03-04T11:08:53.117Z,51.60
2019-03-04T11:13:11.503Z,52.30
2019-03-04T11:17:29.757Z,52.20
2019-03-04T11:21:48.327Z,52.50
2019-03-04T11:26:07.420Z,52.40
2019-03-04T11:30:30.322Z,52.80
2019-03-04T11:34:48.556Z,52.00
2019-03-04T11:39:47.147Z,52.80
2019-03-04T11:44:07.673Z,51.70
2019-03-04T11:48:25.926Z,51.80
2019-03-04T11:52:44.494Z,52.10
2019-03-04T11:57:02.625Z,51.70
2019-03-04T12:01:55.165Z,51.90
2019-03-04T12:06:13.574Z,52.30
2019-03-04T12:10:31.866Z,51.50
2019-03-04T12:14:50.066Z,51.00
2019-03-04T12:19:08.330Z,50.70
2019-03-04T12:23:26.510Z,50.90
2019-03-04T12:27:44.790Z,50.90
2019-03-04T12:32:07.794Z,51.00
2019-03-04T12:36:27.110Z,50.80
2019-03-04T12:40:45.264Z,51.80
2019-03-04T12:45:03.488Z,50.80
2019-03-04T12:49:21.815Z,51.10
2019-03-04T12:53:41.504Z,51.20
2019-03-04T12:57:59.994Z,50.40
2019-03-04T13:02:18.178Z,50.80
2019-03-04T13:06:36.681Z,50.40
2019-03-04T13:10:54.896Z,51.40
2019-03-04T13:15:17.422Z,51.90
2019-03-04T13:19:36.625Z,51.80
2019-03-04T13:23:55.278Z,49.10
2019-03-04T13:28:14.213Z,48.80
2019-03-04T13:32:32.559Z,46.90
2019-03-04T13:36:51.008Z,47.60
2019-03-04T13:41:11.034Z,46.00
2019-03-04T13:45:29.687Z,47.40
2019-03-04T13:49:48.209Z,43.90
2019-03-04T13:54:06.450Z,44.20
2019-03-04T13:58:24.654Z,42.80
2019-03-04T14:02:42.851Z,43.10
2019-03-04T14:07:01.307Z,44.20
2019-03-04T14:11:19.659Z,44.60
2019-03-04T14:15:40.213Z,43.50
2019-03-04T14:19:58.712Z,43.30
2019-03-04T14:24:17.497Z,44.80
2019-03-04T14:28:36.222Z,43.60
2019-03-04T14:32:54.481Z,44.80
2019-03-04T14:37:12.729Z,45.20
2019-03-04T14:41:33.862Z,43.10
2019-03-04T14:45:54.235Z,42.30
2019-03-04T14:50:14.923Z,40.30
2019-03-04T14:54:33.346Z,42.30
2019-03-04T14:59:09.822Z,40.10
2019-03-04T15:03:19.908Z,42.00
2019-03-04T15:07:31.251Z,40.70
2019-03-04T15:11:49.560Z,40.50
2019-03-04T15:16:09.148Z,40.30
2019-03-04T15:20:28.245Z,40.90
2019-03-04T15:24:46.897Z,40.40
2019-03-04T15:29:07.179Z,41.50
2019-03-04T15:33:25.099Z,41.60
2019-03-04T15:37:43.552Z,42.40
2019-03-04T15:42:01.746Z,41.70
2019-03-04T15:46:20.225Z,42.20
2019-03-04T15:50:38.400Z,46.50
2019-03-04T15:54:56.622Z,48.00
2019-03-04T15:59:14.716Z,50.40
2019-03-04T16:03:33.125Z,51.70
2019-03-04T16:07:51.396Z,53.20
2019-03-04T16:12:10.222Z,53.90
2019-03-04T16:16:28.505Z,54.80
2019-03-04T16:20:47.202Z,55.20
2019-03-04T16:25:06.686Z,56.40
2019-03-04T16:29:25.042Z,56.10
2019-03-04T16:33:43.738Z,56.40
2019-03-04T16:38:02.025Z,56.80
2019-03-04T16:42:20.983Z,57.60
2019-03-04T16:46:39.215Z,57.80
2019-03-04T16:50:58.877Z,57.60
2019-03-04T16:55:17.810Z,58.10
2019-03-04T16:59:36.154Z,58.10
2019-03-04T17:03:55.205Z,58.00
2019-03-04T17:08:13.878Z,58.30
2019-03-04T17:12:32.248Z,59.30
2019-03-04T17:16:50.946Z,59.30
2019-03-04T17:21:09.444Z,59.80
2019-03-04T17:25:28.173Z,59.90
2019-03-04T17:29:46.556Z,60.20
2019-03-04T17:34:05.256Z,60.50
2019-03-04T17:38:23.760Z,60.60
2019-03-04T17:42:42.105Z,60.00
2019-03-04T17:47:00.488Z,60.30
2019-03-04T17:51:19.530Z,60.40
2019-03-04T17:55:38.248Z,60.30
2019-03-04T17:59:57.286Z,60.60
2019-03-04T18:04:15.746Z,60.10
2019-03-04T18:08:35.416Z,60.00
2019-03-04T18:12:54.457Z,60.00
2019-03-04T18:17:12.890Z,60.30
2019-03-04T18:21:31.331Z,60.50
2019-03-04T18:25:57.845Z,60.00
2019-03-04T18:31:04.924Z,60.00
2019-03-04T18:36:00.812Z,60.10
2019-03-04T18:41:20.699Z,60.30
2019-03-04T18:46:42.325Z,60.50
2019-03-04T18:51:01.170Z,60.30
2019-03-04T18:55:21.778Z,60.50
2019-03-04T18:59:40.020Z,60.60
2019-03-04T19:03:58.278Z,60.60
2019-03-04T19:08:17.045Z,60.60
2019-03-04T19:12:36.785Z,60.70
2019-03-04T19:16:55.005Z,60.70
2019-03-04T19:21:13.664Z,60.60
2019-03-04T19:25:32.240Z,60.60
2019-03-04T19:29:51.360Z,60.50
2019-03-04T19:34:13.122Z,60.60
2019-03-04T19:38:31.502Z,60.80
2019-03-04T19:42:49.900Z,60.70
2019-03-04T19:47:08.723Z,60.60
2019-03-04T19:51:27.569Z,60.70
2019-03-04T19:55:46.254Z,60.90
2019-03-04T20:00:05.451Z,60.80
2019-03-04T20:04:24.215Z,60.70
2019-03-04T20:08:44.547Z,60.70
2019-03-04T20:13:04.409Z,60.90
2019-03-04T20:17:23.175Z,61.00
2019-03-04T20:21:45.374Z,60.90
2019-03-04T20:26:06.196Z,60.80
2019-03-04T20:30:25.681Z,60.70
2019-03-04T20:34:45.874Z,60.70
2019-03-04T20:39:09.253Z,60.70
2019-03-04T20:43:28.339Z,61.00
2019-03-04T20:47:51.297Z,61.00
2019-03-04T20:52:12.817Z,61.00
2019-03-04T20:56:31.246Z,61.20
2019-03-04T21:00:51.047Z,61.20
2019-03-04T21:05:11.451Z,62.10
2019-03-04T21:09:36.710Z,61.50
2019-03-04T21:14:00.933Z,61.40
2019-03-04T21:18:21.496Z,61.70
2019-03-04T21:22:41.389Z,61.80
2019-03-04T21:27:00.123Z,62.00
2019-03-04T21:32:04.469Z,62.10
2019-03-04T21:36:55.041Z,62.10
2019-03-04T21:41:56.021Z,62.20
2019-03-04T21:47:01.695Z,62.50
2019-03-04T21:52:05.647Z,62.80
2019-03-04T21:57:17.136Z,62.90
2019-03-04T22:01:42.136Z,63.20
2019-03-04T22:06:02.211Z,62.90
2019-03-04T22:10:22.122Z,63.90
2019-03-04T22:14:40.481Z,63.20
2019-03-04T22:18:59.164Z,63.30
2019-03-04T22:23:18.278Z,63.40
2019-03-04T22:27:38.202Z,63.50
2019-03-04T22:31:57.388Z,63.30
2019-03-04T22:36:16.162Z,63.00
2019-03-04T22:40:34.541Z,62.80
2019-03-04T22:44:52.864Z,62.50
2019-03-04T22:49:11.507Z,62.60
2019-03-04T22:53:31.027Z,62.70
2019-03-04T22:57:49.606Z,62.80
2019-03-04T23:02:08.618Z,62.60
2019-03-04T23:06:28.674Z,62.40
2019-03-04T23:10:50.105Z,62.20
2019-03-04T23:15:12.045Z,62.10
2019-03-04T23:19:30.209Z,62.10
2019-03-04T23:23:48.644Z,62.00
2019-03-04T23:28:07.027Z,61.90
2019-03-04T23:32:25.011Z,62.70
2019-03-04T23:36:43.321Z,61.80
2019-03-04T23:41:01.363Z,61.70
2019-03-04T23:45:19.633Z,61.70
2019-03-04T23:49:38.018Z,62.00
2019-03-04T23:53:56.152Z,62.00
2019-03-04T23:58:14.400Z,62.00
